sensor_id;sensor_type;location;lat;lon;timestamp;P1;durP1;ratioP1;P2;durP2;ratioP2
61962;SDS011;47927;42.646;23.096;2023-04-03T00:00:56;3.42;;;1.08;;
61962;SDS011;47927;42.646;23.096;2023-04-03T00:03:22;1.85;;;0.73;;
61962;SDS011;47927;42.646;23.096;2023-04-03T00:05:48;1.73;;;0.80;;
61962;SDS011;47927;42.646;23.096;2023-04-03T00:08:14;1.42;;;0.70;;
61962;SDS011;47927;42.646;23.096;2023-04-03T00:10:40;1.38;;;0.65;;
61962;SDS011;47927;42.646;23.096;2023-04-03T00:13:06;2.35;;;0.90;;
61962;SDS011;47927;42.646;23.096;2023-04-03T00:15:32;2.35;;;0.90;;
61962;SDS011;47927;42.646;23.096;2023-04-03T00:17:58;1.42;;;0.70;;
61962;SDS011;47927;42.646;23.096;2023-04-03T00:20:23;1.10;;;0.60;;
61962;SDS011;47927;42.646;23.096;2023-04-03T00:22:49;1.65;;;0.75;;
61962;SDS011;47927;42.646;23.096;2023-04-03T00:25:15;1.90;;;0.70;;
61962;SDS011;47927;42.646;23.096;2023-04-03T00:27:41;1.42;;;0.70;;
61962;SDS011;47927;42.646;23.096;2023-04-03T00:30:07;1.83;;;0.68;;
61962;SDS011;47927;42.646;23.096;2023-04-03T00:32:35;1.45;;;0.65;;
61962;SDS011;47927;42.646;23.096;2023-04-03T00:35:01;1.15;;;0.80;;
61962;SDS011;47927;42.646;23.096;2023-04-03T00:37:26;1.35;;;0.70;;
61962;SDS011;47927;42.646;23.096;2023-04-03T00:39:52;6.60;;;1.25;;
61962;SDS011;47927;42.646;23.096;2023-04-03T00:42:19;1.77;;;0.82;;
61962;SDS011;47927;42.646;23.096;2023-04-03T00:47:12;1.23;;;0.65;;
61962;SDS011;47927;42.646;23.096;2023-04-03T00:49:41;1.98;;;0.90;;
61962;SDS011;47927;42.646;23.096;2023-04-03T00:52:08;2.30;;;0.75;;
61962;SDS011;47927;42.646;23.096;2023-04-03T00:54:40;1.88;;;1.00;;
61962;SDS011;47927;42.646;23.096;2023-04-03T00:57:08;2.60;;;1.00;;
61962;SDS011;47927;42.646;23.096;2023-04-03T00:59:34;2.42;;;1.00;;
61962;SDS011;47927;42.646;23.096;2023-04-03T01:02:03;1.55;;;0.85;;
61962;SDS011;47927;42.646;23.096;2023-04-03T01:04:37;3.58;;;1.00;;
61962;SDS011;47927;42.646;23.096;2023-04-03T01:07:27;2.95;;;0.80;;
61962;SDS011;47927;42.646;23.096;2023-04-03T01:09:54;1.50;;;0.73;;
61962;SDS011;47927;42.646;23.096;2023-04-03T01:14:51;1.10;;;0.70;;
61962;SDS011;47927;42.646;23.096;2023-04-03T01:17:26;1.08;;;0.68;;
61962;SDS011;47927;42.646;23.096;2023-04-03T01:20:40;1.08;;;0.63;;
61962;SDS011;47927;42.646;23.096;2023-04-03T01:25:45;1.83;;;0.80;;
61962;SDS011;47927;42.646;23.096;2023-04-03T01:28:12;1.58;;;0.75;;
61962;SDS011;47927;42.646;23.096;2023-04-03T01:30:48;1.95;;;1.00;;
61962;SDS011;47927;42.646;23.096;2023-04-03T01:33:22;1.33;;;0.73;;
61962;SDS011;47927;42.646;23.096;2023-04-03T01:35:48;1.17;;;0.57;;
61962;SDS011;47927;42.646;23.096;2023-04-03T01:38:13;1.70;;;0.80;;
61962;SDS011;47927;42.646;23.096;2023-04-03T01:40:40;5.43;;;1.15;;
61962;SDS011;47927;42.646;23.096;2023-04-03T01:43:05;2.00;;;0.80;;
61962;SDS011;47927;42.646;23.096;2023-04-03T01:45:31;1.60;;;0.80;;
61962;SDS011;47927;42.646;23.096;2023-04-03T01:47:57;1.00;;;0.70;;
61962;SDS011;47927;42.646;23.096;2023-04-03T01:50:24;2.67;;;0.93;;
61962;SDS011;47927;42.646;23.096;2023-04-03T01:52:49;1.67;;;0.98;;
61962;SDS011;47927;42.646;23.096;2023-04-03T01:55:15;1.40;;;0.70;;
61962;SDS011;47927;42.646;23.096;2023-04-03T01:57:40;1.38;;;0.73;;
61962;SDS011;47927;42.646;23.096;2023-04-03T02:00:06;1.88;;;0.90;;
61962;SDS011;47927;42.646;23.096;2023-04-03T02:02:38;2.05;;;1.00;;
61962;SDS011;47927;42.646;23.096;2023-04-03T02:05:04;1.42;;;0.82;;
61962;SDS011;47927;42.646;23.096;2023-04-03T02:07:30;1.50;;;0.90;;
61962;SDS011;47927;42.646;23.096;2023-04-03T02:09:55;3.40;;;1.10;;
61962;SDS011;47927;42.646;23.096;2023-04-03T02:12:21;1.70;;;1.00;;
61962;SDS011;47927;42.646;23.096;2023-04-03T02:14:47;1.75;;;0.77;;
61962;SDS011;47927;42.646;23.096;2023-04-03T02:17:13;1.67;;;0.70;;
61962;SDS011;47927;42.646;23.096;2023-04-03T02:19:38;2.80;;;1.00;;
61962;SDS011;47927;42.646;23.096;2023-04-03T02:22:04;3.05;;;1.25;;
61962;SDS011;47927;42.646;23.096;2023-04-03T02:24:31;3.08;;;1.20;;
61962;SDS011;47927;42.646;23.096;2023-04-03T02:26:58;1.52;;;0.88;;
61962;SDS011;47927;42.646;23.096;2023-04-03T02:29:24;2.80;;;1.10;;
61962;SDS011;47927;42.646;23.096;2023-04-03T02:31:50;1.88;;;0.88;;
61962;SDS011;47927;42.646;23.096;2023-04-03T02:34:16;2.28;;;0.90;;
61962;SDS011;47927;42.646;23.096;2023-04-03T02:36:43;1.52;;;0.80;;
61962;SDS011;47927;42.646;23.096;2023-04-03T02:39:10;0.80;;;0.60;;
61962;SDS011;47927;42.646;23.096;2023-04-03T02:41:36;1.70;;;0.80;;
61962;SDS011;47927;42.646;23.096;2023-04-03T02:44:06;1.45;;;0.90;;
61962;SDS011;47927;42.646;23.096;2023-04-03T02:46:34;3.25;;;1.02;;
61962;SDS011;47927;42.646;23.096;2023-04-03T02:49:01;2.70;;;0.85;;
61962;SDS011;47927;42.646;23.096;2023-04-03T02:51:27;1.38;;;0.73;;
61962;SDS011;47927;42.646;23.096;2023-04-03T02:53:53;2.55;;;0.90;;
61962;SDS011;47927;42.646;23.096;2023-04-03T02:56:22;1.45;;;0.80;;
61962;SDS011;47927;42.646;23.096;2023-04-03T02:58:48;5.68;;;1.75;;
61962;SDS011;47927;42.646;23.096;2023-04-03T03:01:15;2.25;;;1.10;;
61962;SDS011;47927;42.646;23.096;2023-04-03T03:03:40;3.78;;;1.65;;
61962;SDS011;47927;42.646;23.096;2023-04-03T03:06:07;4.50;;;1.90;;
61962;SDS011;47927;42.646;23.096;2023-04-03T03:08:34;6.93;;;2.20;;
61962;SDS011;47927;42.646;23.096;2023-04-03T03:11:01;3.45;;;1.77;;
61962;SDS011;47927;42.646;23.096;2023-04-03T03:13:27;3.95;;;1.67;;
61962;SDS011;47927;42.646;23.096;2023-04-03T03:15:52;4.20;;;1.88;;
61962;SDS011;47927;42.646;23.096;2023-04-03T03:18:18;5.47;;;1.20;;
61962;SDS011;47927;42.646;23.096;2023-04-03T03:20:44;2.42;;;1.20;;
61962;SDS011;47927;42.646;23.096;2023-04-03T03:23:10;4.05;;;1.10;;
61962;SDS011;47927;42.646;23.096;2023-04-03T03:25:39;1.25;;;0.70;;
61962;SDS011;47927;42.646;23.096;2023-04-03T03:28:06;1.42;;;0.80;;
61962;SDS011;47927;42.646;23.096;2023-04-03T03:30:33;2.13;;;1.00;;
61962;SDS011;47927;42.646;23.096;2023-04-03T03:32:59;2.25;;;0.85;;
61962;SDS011;47927;42.646;23.096;2023-04-03T03:35:24;1.73;;;0.90;;
61962;SDS011;47927;42.646;23.096;2023-04-03T03:37:50;0.98;;;0.60;;
61962;SDS011;47927;42.646;23.096;2023-04-03T03:40:16;2.00;;;1.00;;
61962;SDS011;47927;42.646;23.096;2023-04-03T03:42:41;2.50;;;1.08;;
61962;SDS011;47927;42.646;23.096;2023-04-03T03:45:07;1.90;;;0.90;;
61962;SDS011;47927;42.646;23.096;2023-04-03T03:47:34;1.13;;;0.63;;
61962;SDS011;47927;42.646;23.096;2023-04-03T03:49:59;1.70;;;0.90;;
61962;SDS011;47927;42.646;23.096;2023-04-03T03:52:25;1.52;;;0.75;;
61962;SDS011;47927;42.646;23.096;2023-04-03T03:54:51;1.33;;;0.73;;
61962;SDS011;47927;42.646;23.096;2023-04-03T03:57:17;2.15;;;0.85;;
61962;SDS011;47927;42.646;23.096;2023-04-03T03:59:43;2.35;;;0.95;;
61962;SDS011;47927;42.646;23.096;2023-04-03T04:02:10;1.35;;;0.77;;
61962;SDS011;47927;42.646;23.096;2023-04-03T04:04:36;1.75;;;0.90;;
61962;SDS011;47927;42.646;23.096;2023-04-03T04:07:02;1.73;;;0.80;;
61962;SDS011;47927;42.646;23.096;2023-04-03T04:09:29;2.00;;;1.00;;
61962;SDS011;47927;42.646;23.096;2023-04-03T04:11:55;2.15;;;1.10;;
61962;SDS011;47927;42.646;23.096;2023-04-03T04:14:21;2.97;;;1.15;;
61962;SDS011;47927;42.646;23.096;2023-04-03T04:16:47;1.70;;;0.80;;
61962;SDS011;47927;42.646;23.096;2023-04-03T04:19:19;1.80;;;1.23;;
61962;SDS011;47927;42.646;23.096;2023-04-03T04:24:13;2.85;;;2.10;;
61962;SDS011;47927;42.646;23.096;2023-04-03T04:26:39;3.03;;;1.60;;
61962;SDS011;47927;42.646;23.096;2023-04-03T04:29:08;2.40;;;1.15;;
61962;SDS011;47927;42.646;23.096;2023-04-03T04:31:35;1.77;;;0.80;;
61962;SDS011;47927;42.646;23.096;2023-04-03T04:34:01;1.92;;;0.90;;
61962;SDS011;47927;42.646;23.096;2023-04-03T04:36:26;3.00;;;1.70;;
61962;SDS011;47927;42.646;23.096;2023-04-03T04:38:52;2.88;;;1.30;;
61962;SDS011;47927;42.646;23.096;2023-04-03T04:41:20;2.92;;;1.77;;
61962;SDS011;47927;42.646;23.096;2023-04-03T04:43:51;3.83;;;1.10;;
61962;SDS011;47927;42.646;23.096;2023-04-03T04:46:17;3.03;;;1.48;;
61962;SDS011;47927;42.646;23.096;2023-04-03T04:48:48;2.15;;;1.17;;
61962;SDS011;47927;42.646;23.096;2023-04-03T04:51:15;2.38;;;1.38;;
61962;SDS011;47927;42.646;23.096;2023-04-03T04:53:41;4.88;;;2.70;;
61962;SDS011;47927;42.646;23.096;2023-04-03T04:56:10;3.40;;;1.90;;
61962;SDS011;47927;42.646;23.096;2023-04-03T04:58:37;2.40;;;1.38;;
61962;SDS011;47927;42.646;23.096;2023-04-03T05:01:04;2.33;;;1.45;;
61962;SDS011;47927;42.646;23.096;2023-04-03T05:03:34;3.85;;;2.10;;
61962;SDS011;47927;42.646;23.096;2023-04-03T05:06:01;3.58;;;1.48;;
61962;SDS011;47927;42.646;23.096;2023-04-03T05:08:30;2.65;;;1.23;;
61962;SDS011;47927;42.646;23.096;2023-04-03T05:10:56;3.80;;;1.58;;
61962;SDS011;47927;42.646;23.096;2023-04-03T05:13:22;10.18;;;4.40;;
61962;SDS011;47927;42.646;23.096;2023-04-03T05:15:48;8.10;;;3.97;;
61962;SDS011;47927;42.646;23.096;2023-04-03T05:18:13;8.68;;;3.95;;
61962;SDS011;47927;42.646;23.096;2023-04-03T05:20:39;6.82;;;3.63;;
61962;SDS011;47927;42.646;23.096;2023-04-03T05:23:05;5.85;;;2.72;;
61962;SDS011;47927;42.646;23.096;2023-04-03T05:25:33;3.60;;;2.08;;
61962;SDS011;47927;42.646;23.096;2023-04-03T05:27:59;7.68;;;3.08;;
61962;SDS011;47927;42.646;23.096;2023-04-03T05:30:25;4.90;;;1.90;;
61962;SDS011;47927;42.646;23.096;2023-04-03T05:32:51;4.32;;;2.40;;
61962;SDS011;47927;42.646;23.096;2023-04-03T05:35:24;3.13;;;1.70;;
61962;SDS011;47927;42.646;23.096;2023-04-03T05:37:53;4.60;;;2.35;;
61962;SDS011;47927;42.646;23.096;2023-04-03T05:40:19;4.72;;;2.05;;
61962;SDS011;47927;42.646;23.096;2023-04-03T05:42:47;4.60;;;2.35;;
61962;SDS011;47927;42.646;23.096;2023-04-03T05:45:13;4.63;;;1.98;;
61962;SDS011;47927;42.646;23.096;2023-04-03T05:47:39;6.47;;;2.15;;
61962;SDS011;47927;42.646;23.096;2023-04-03T05:50:06;4.40;;;2.08;;
61962;SDS011;47927;42.646;23.096;2023-04-03T05:52:36;4.30;;;1.73;;
61962;SDS011;47927;42.646;23.096;2023-04-03T05:55:03;3.65;;;1.90;;
61962;SDS011;47927;42.646;23.096;2023-04-03T05:57:32;2.42;;;1.20;;
61962;SDS011;47927;42.646;23.096;2023-04-03T05:59:57;3.72;;;1.75;;
61962;SDS011;47927;42.646;23.096;2023-04-03T06:02:24;4.03;;;1.85;;
61962;SDS011;47927;42.646;23.096;2023-04-03T06:04:50;2.38;;;1.27;;
61962;SDS011;47927;42.646;23.096;2023-04-03T06:07:19;3.67;;;1.38;;
61962;SDS011;47927;42.646;23.096;2023-04-03T06:09:51;2.97;;;1.70;;
61962;SDS011;47927;42.646;23.096;2023-04-03T06:12:17;3.75;;;1.50;;
61962;SDS011;47927;42.646;23.096;2023-04-03T06:14:43;2.30;;;1.20;;
61962;SDS011;47927;42.646;23.096;2023-04-03T06:17:09;3.67;;;1.33;;
61962;SDS011;47927;42.646;23.096;2023-04-03T06:19:35;2.47;;;1.45;;
61962;SDS011;47927;42.646;23.096;2023-04-03T06:22:01;2.53;;;1.33;;
61962;SDS011;47927;42.646;23.096;2023-04-03T06:24:28;2.20;;;1.27;;
61962;SDS011;47927;42.646;23.096;2023-04-03T06:26:55;3.90;;;1.60;;
61962;SDS011;47927;42.646;23.096;2023-04-03T06:29:20;2.45;;;1.33;;
61962;SDS011;47927;42.646;23.096;2023-04-03T06:31:46;2.80;;;1.33;;
61962;SDS011;47927;42.646;23.096;2023-04-03T06:34:13;2.65;;;1.33;;
61962;SDS011;47927;42.646;23.096;2023-04-03T06:36:39;2.60;;;1.23;;
61962;SDS011;47927;42.646;23.096;2023-04-03T06:39:05;2.25;;;1.27;;
61962;SDS011;47927;42.646;23.096;2023-04-03T06:41:32;2.55;;;1.45;;
61962;SDS011;47927;42.646;23.096;2023-04-03T06:43:58;2.78;;;1.40;;
61962;SDS011;47927;42.646;23.096;2023-04-03T06:46:24;2.90;;;1.50;;
61962;SDS011;47927;42.646;23.096;2023-04-03T06:48:51;2.75;;;1.35;;
61962;SDS011;47927;42.646;23.096;2023-04-03T06:51:24;2.63;;;1.38;;
61962;SDS011;47927;42.646;23.096;2023-04-03T06:53:52;3.47;;;1.40;;
61962;SDS011;47927;42.646;23.096;2023-04-03T06:56:18;2.22;;;1.20;;
61962;SDS011;47927;42.646;23.096;2023-04-03T06:58:44;2.13;;;1.25;;
61962;SDS011;47927;42.646;23.096;2023-04-03T07:01:12;4.47;;;1.60;;
61962;SDS011;47927;42.646;23.096;2023-04-03T07:03:40;3.10;;;1.70;;
61962;SDS011;47927;42.646;23.096;2023-04-03T07:06:05;2.80;;;1.40;;
61962;SDS011;47927;42.646;23.096;2023-04-03T07:08:32;1.90;;;1.05;;
61962;SDS011;47927;42.646;23.096;2023-04-03T07:10:59;2.85;;;1.58;;
61962;SDS011;47927;42.646;23.096;2023-04-03T07:13:24;2.28;;;1.30;;
61962;SDS011;47927;42.646;23.096;2023-04-03T07:15:50;3.78;;;1.52;;
61962;SDS011;47927;42.646;23.096;2023-04-03T07:18:16;2.80;;;1.40;;
61962;SDS011;47927;42.646;23.096;2023-04-03T07:20:44;1.83;;;1.17;;
61962;SDS011;47927;42.646;23.096;2023-04-03T07:23:10;2.60;;;1.30;;
61962;SDS011;47927;42.646;23.096;2023-04-03T07:25:36;3.00;;;1.48;;
61962;SDS011;47927;42.646;23.096;2023-04-03T07:28:06;2.22;;;1.23;;
61962;SDS011;47927;42.646;23.096;2023-04-03T07:30:33;1.85;;;1.10;;
61962;SDS011;47927;42.646;23.096;2023-04-03T07:33:00;2.42;;;1.50;;
61962;SDS011;47927;42.646;23.096;2023-04-03T07:35:25;6.63;;;1.30;;
61962;SDS011;47927;42.646;23.096;2023-04-03T07:37:51;2.08;;;1.20;;
61962;SDS011;47927;42.646;23.096;2023-04-03T07:40:17;1.42;;;1.00;;
61962;SDS011;47927;42.646;23.096;2023-04-03T07:42:42;1.50;;;1.00;;
61962;SDS011;47927;42.646;23.096;2023-04-03T07:45:08;1.83;;;1.08;;
61962;SDS011;47927;42.646;23.096;2023-04-03T07:47:34;3.47;;;1.10;;
61962;SDS011;47927;42.646;23.096;2023-04-03T07:50:00;1.77;;;1.08;;
61962;SDS011;47927;42.646;23.096;2023-04-03T07:52:25;1.33;;;0.88;;
61962;SDS011;47927;42.646;23.096;2023-04-03T07:54:51;4.80;;;1.58;;
61962;SDS011;47927;42.646;23.096;2023-04-03T07:57:16;2.80;;;1.42;;
61962;SDS011;47927;42.646;23.096;2023-04-03T07:59:42;1.55;;;0.88;;
61962;SDS011;47927;42.646;23.096;2023-04-03T08:02:11;1.15;;;0.80;;
61962;SDS011;47927;42.646;23.096;2023-04-03T08:04:37;1.60;;;0.90;;
61962;SDS011;47927;42.646;23.096;2023-04-03T08:07:02;2.13;;;0.90;;
61962;SDS011;47927;42.646;23.096;2023-04-03T08:09:28;2.20;;;0.95;;
61962;SDS011;47927;42.646;23.096;2023-04-03T08:11:53;2.00;;;1.05;;
61962;SDS011;47927;42.646;23.096;2023-04-03T08:14:19;1.55;;;0.90;;
61962;SDS011;47927;42.646;23.096;2023-04-03T08:16:46;1.77;;;1.10;;
61962;SDS011;47927;42.646;23.096;2023-04-03T08:19:13;4.00;;;1.40;;
61962;SDS011;47927;42.646;23.096;2023-04-03T08:21:40;2.95;;;1.83;;
61962;SDS011;47927;42.646;23.096;2023-04-03T08:24:09;2.55;;;1.10;;
61962;SDS011;47927;42.646;23.096;2023-04-03T08:26:35;1.90;;;0.93;;
61962;SDS011;47927;42.646;23.096;2023-04-03T08:29:01;1.85;;;0.80;;
61962;SDS011;47927;42.646;23.096;2023-04-03T08:31:27;1.40;;;0.90;;
61962;SDS011;47927;42.646;23.096;2023-04-03T08:33:53;1.75;;;1.10;;
61962;SDS011;47927;42.646;23.096;2023-04-03T08:38:49;1.65;;;1.00;;
61962;SDS011;47927;42.646;23.096;2023-04-03T08:46:25;1.88;;;1.00;;
61962;SDS011;47927;42.646;23.096;2023-04-03T08:49:01;2.72;;;1.17;;
61962;SDS011;47927;42.646;23.096;2023-04-03T08:51:26;3.72;;;1.30;;
61962;SDS011;47927;42.646;23.096;2023-04-03T08:54:01;1.92;;;1.20;;
61962;SDS011;47927;42.646;23.096;2023-04-03T08:56:33;3.50;;;1.80;;
61962;SDS011;47927;42.646;23.096;2023-04-03T08:59:00;2.25;;;1.00;;
61962;SDS011;47927;42.646;23.096;2023-04-03T09:01:34;1.98;;;1.00;;
61962;SDS011;47927;42.646;23.096;2023-04-03T09:04:02;4.72;;;0.90;;
61962;SDS011;47927;42.646;23.096;2023-04-03T09:06:34;1.63;;;1.00;;
61962;SDS011;47927;42.646;23.096;2023-04-03T09:09:11;1.83;;;1.17;;
61962;SDS011;47927;42.646;23.096;2023-04-03T09:16:49;1.85;;;0.80;;
61962;SDS011;47927;42.646;23.096;2023-04-03T09:21:56;4.28;;;1.25;;
61962;SDS011;47927;42.646;23.096;2023-04-03T09:24:23;1.13;;;0.80;;
61962;SDS011;47927;42.646;23.096;2023-04-03T09:26:51;4.05;;;1.40;;
61962;SDS011;47927;42.646;23.096;2023-04-03T09:29:23;1.95;;;1.10;;
61962;SDS011;47927;42.646;23.096;2023-04-03T09:31:50;1.90;;;1.00;;
61962;SDS011;47927;42.646;23.096;2023-04-03T09:34:22;4.28;;;1.30;;
61962;SDS011;47927;42.646;23.096;2023-04-03T09:36:52;5.20;;;1.60;;
61962;SDS011;47927;42.646;23.096;2023-04-03T09:39:25;2.47;;;1.40;;
61962;SDS011;47927;42.646;23.096;2023-04-03T09:41:56;3.40;;;1.50;;
61962;SDS011;47927;42.646;23.096;2023-04-03T09:44:25;3.90;;;1.77;;
61962;SDS011;47927;42.646;23.096;2023-04-03T09:46:53;4.07;;;1.63;;
61962;SDS011;47927;42.646;23.096;2023-04-03T09:49:19;3.25;;;1.95;;
61962;SDS011;47927;42.646;23.096;2023-04-03T09:51:45;5.88;;;2.15;;
61962;SDS011;47927;42.646;23.096;2023-04-03T09:54:30;4.15;;;2.00;;
61962;SDS011;47927;42.646;23.096;2023-04-03T09:56:56;3.97;;;2.30;;
61962;SDS011;47927;42.646;23.096;2023-04-03T09:59:27;3.65;;;1.98;;
61962;SDS011;47927;42.646;23.096;2023-04-03T10:04:47;3.35;;;2.00;;
61962;SDS011;47927;42.646;23.096;2023-04-03T10:07:32;4.30;;;1.77;;
61962;SDS011;47927;42.646;23.096;2023-04-03T10:10:15;7.18;;;2.60;;
61962;SDS011;47927;42.646;23.096;2023-04-03T10:12:42;5.63;;;2.70;;
61962;SDS011;47927;42.646;23.096;2023-04-03T10:15:11;12.27;;;2.58;;
61962;SDS011;47927;42.646;23.096;2023-04-03T10:17:47;3.33;;;1.98;;
61962;SDS011;47927;42.646;23.096;2023-04-03T10:23:24;4.75;;;1.85;;
61962;SDS011;47927;42.646;23.096;2023-04-03T10:34:45;5.35;;;2.72;;
61962;SDS011;47927;42.646;23.096;2023-04-03T10:37:26;10.15;;;3.05;;
61962;SDS011;47927;42.646;23.096;2023-04-03T10:42:53;8.52;;;3.17;;
61962;SDS011;47927;42.646;23.096;2023-04-03T10:48:16;8.30;;;2.90;;
61962;SDS011;47927;42.646;23.096;2023-04-03T10:53:20;5.38;;;2.85;;
61962;SDS011;47927;42.646;23.096;2023-04-03T10:58:27;8.00;;;3.25;;
61962;SDS011;47927;42.646;23.096;2023-04-03T11:00:59;5.05;;;3.10;;
61962;SDS011;47927;42.646;23.096;2023-04-03T11:03:32;4.60;;;3.10;;
61962;SDS011;47927;42.646;23.096;2023-04-03T11:06:02;5.03;;;2.25;;
61962;SDS011;47927;42.646;23.096;2023-04-03T11:11:06;5.53;;;2.55;;
61962;SDS011;47927;42.646;23.096;2023-04-03T11:13:44;4.22;;;1.90;;
61962;SDS011;47927;42.646;23.096;2023-04-03T11:16:18;6.75;;;2.15;;
61962;SDS011;47927;42.646;23.096;2023-04-03T11:18:56;5.32;;;1.80;;
61962;SDS011;47927;42.646;23.096;2023-04-03T11:22:03;6.13;;;2.22;;
61962;SDS011;47927;42.646;23.096;2023-04-03T11:24:27;4.85;;;2.20;;
61962;SDS011;47927;42.646;23.096;2023-04-03T11:26:56;6.80;;;2.25;;
61962;SDS011;47927;42.646;23.096;2023-04-03T11:29:29;4.28;;;2.70;;
61962;SDS011;47927;42.646;23.096;2023-04-03T11:32:06;3.78;;;2.05;;
61962;SDS011;47927;42.646;23.096;2023-04-03T11:34:34;6.82;;;1.60;;
61962;SDS011;47927;42.646;23.096;2023-04-03T11:37:12;5.05;;;1.80;;
61962;SDS011;47927;42.646;23.096;2023-04-03T11:39:47;3.63;;;1.50;;
61962;SDS011;47927;42.646;23.096;2023-04-03T11:47:50;2.58;;;1.00;;
61962;SDS011;47927;42.646;23.096;2023-04-03T11:58:16;2.45;;;1.20;;
61962;SDS011;47927;42.646;23.096;2023-04-03T12:26:48;4.25;;;1.77;;
61962;SDS011;47927;42.646;23.096;2023-04-03T12:29:33;2.75;;;1.40;;
61962;SDS011;47927;42.646;23.096;2023-04-03T12:46:26;3.60;;;1.50;;
61962;SDS011;47927;42.646;23.096;2023-04-03T12:49:35;3.47;;;1.48;;
61962;SDS011;47927;42.646;23.096;2023-04-03T12:52:05;2.95;;;1.65;;
61962;SDS011;47927;42.646;23.096;2023-04-03T12:54:42;1.73;;;0.90;;
61962;SDS011;47927;42.646;23.096;2023-04-03T12:59:38;3.47;;;1.35;;
61962;SDS011;47927;42.646;23.096;2023-04-03T13:02:10;3.45;;;1.50;;
61962;SDS011;47927;42.646;23.096;2023-04-03T13:05:07;3.08;;;1.63;;
61962;SDS011;47927;42.646;23.096;2023-04-03T13:07:35;3.38;;;1.83;;
61962;SDS011;47927;42.646;23.096;2023-04-03T13:10:13;5.97;;;2.15;;
61962;SDS011;47927;42.646;23.096;2023-04-03T13:12:48;5.32;;;3.00;;
61962;SDS011;47927;42.646;23.096;2023-04-03T13:15:18;6.05;;;1.40;;
61962;SDS011;47927;42.646;23.096;2023-04-03T13:17:48;2.65;;;1.23;;
61962;SDS011;47927;42.646;23.096;2023-04-03T13:20:22;2.80;;;1.40;;
61962;SDS011;47927;42.646;23.096;2023-04-03T13:25:26;2.13;;;1.35;;
61962;SDS011;47927;42.646;23.096;2023-04-03T13:27:54;3.22;;;1.48;;
61962;SDS011;47927;42.646;23.096;2023-04-03T13:30:25;4.93;;;2.53;;
61962;SDS011;47927;42.646;23.096;2023-04-03T13:32:54;1.50;;;1.02;;
61962;SDS011;47927;42.646;23.096;2023-04-03T13:37:58;3.75;;;1.60;;
61962;SDS011;47927;42.646;23.096;2023-04-03T13:40:50;2.88;;;1.60;;
61962;SDS011;47927;42.646;23.096;2023-04-03T13:43:24;2.17;;;1.00;;
61962;SDS011;47927;42.646;23.096;2023-04-03T13:46:33;1.85;;;1.00;;
61962;SDS011;47927;42.646;23.096;2023-04-03T13:48:41;2.33;;;1.40;;
61962;SDS011;47927;42.646;23.096;2023-04-03T13:56:43;2.45;;;1.20;;
61962;SDS011;47927;42.646;23.096;2023-04-03T14:01:40;2.00;;;0.90;;
61962;SDS011;47927;42.646;23.096;2023-04-03T14:04:17;1.58;;;0.95;;
61962;SDS011;47927;42.646;23.096;2023-04-03T14:06:45;3.25;;;1.60;;
61962;SDS011;47927;42.646;23.096;2023-04-03T14:09:12;2.15;;;1.33;;
61962;SDS011;47927;42.646;23.096;2023-04-03T14:11:38;2.47;;;1.42;;
61962;SDS011;47927;42.646;23.096;2023-04-03T14:14:38;4.20;;;1.30;;
61962;SDS011;47927;42.646;23.096;2023-04-03T14:17:00;2.03;;;1.10;;
61962;SDS011;47927;42.646;23.096;2023-04-03T14:19:32;2.63;;;1.23;;
61962;SDS011;47927;42.646;23.096;2023-04-03T14:21:59;2.88;;;1.38;;
61962;SDS011;47927;42.646;23.096;2023-04-03T14:24:26;1.85;;;1.20;;
61962;SDS011;47927;42.646;23.096;2023-04-03T14:26:53;1.50;;;0.90;;
61962;SDS011;47927;42.646;23.096;2023-04-03T14:29:20;2.58;;;1.10;;
61962;SDS011;47927;42.646;23.096;2023-04-03T14:31:47;1.83;;;1.13;;
61962;SDS011;47927;42.646;23.096;2023-04-03T14:34:14;2.95;;;1.42;;
61962;SDS011;47927;42.646;23.096;2023-04-03T14:36:41;2.92;;;1.67;;
61962;SDS011;47927;42.646;23.096;2023-04-03T14:39:10;1.77;;;1.08;;
61962;SDS011;47927;42.646;23.096;2023-04-03T14:41:42;2.63;;;1.20;;
61962;SDS011;47927;42.646;23.096;2023-04-03T14:44:08;4.50;;;1.10;;
61962;SDS011;47927;42.646;23.096;2023-04-03T14:46:38;2.10;;;1.10;;
61962;SDS011;47927;42.646;23.096;2023-04-03T14:49:14;1.85;;;1.00;;
61962;SDS011;47927;42.646;23.096;2023-04-03T14:51:51;1.98;;;0.90;;
61962;SDS011;47927;42.646;23.096;2023-04-03T14:54:18;2.90;;;1.08;;
61962;SDS011;47927;42.646;23.096;2023-04-03T14:56:50;1.10;;;0.80;;
61962;SDS011;47927;42.646;23.096;2023-04-03T14:59:17;1.35;;;0.70;;
61962;SDS011;47927;42.646;23.096;2023-04-03T15:01:45;1.75;;;0.90;;
61962;SDS011;47927;42.646;23.096;2023-04-03T15:04:14;2.47;;;1.02;;
61962;SDS011;47927;42.646;23.096;2023-04-03T15:06:42;1.65;;;0.77;;
61962;SDS011;47927;42.646;23.096;2023-04-03T15:09:21;2.70;;;1.00;;
61962;SDS011;47927;42.646;23.096;2023-04-03T15:11:50;2.42;;;1.15;;
61962;SDS011;47927;42.646;23.096;2023-04-03T15:14:17;2.22;;;1.00;;
61962;SDS011;47927;42.646;23.096;2023-04-03T15:16:43;1.23;;;0.73;;
61962;SDS011;47927;42.646;23.096;2023-04-03T15:19:09;1.85;;;1.00;;
61962;SDS011;47927;42.646;23.096;2023-04-03T15:21:35;2.40;;;1.20;;
61962;SDS011;47927;42.646;23.096;2023-04-03T15:24:01;1.95;;;0.90;;
61962;SDS011;47927;42.646;23.096;2023-04-03T15:26:26;2.15;;;1.15;;
61962;SDS011;47927;42.646;23.096;2023-04-03T15:28:52;1.55;;;0.90;;
61962;SDS011;47927;42.646;23.096;2023-04-03T15:31:18;1.40;;;0.68;;
61962;SDS011;47927;42.646;23.096;2023-04-03T15:33:43;2.20;;;1.23;;
61962;SDS011;47927;42.646;23.096;2023-04-03T15:36:09;1.77;;;1.02;;
61962;SDS011;47927;42.646;23.096;2023-04-03T15:38:34;2.95;;;1.45;;
61962;SDS011;47927;42.646;23.096;2023-04-03T15:41:02;1.50;;;0.85;;
61962;SDS011;47927;42.646;23.096;2023-04-03T15:43:28;2.88;;;1.50;;
61962;SDS011;47927;42.646;23.096;2023-04-03T15:45:56;1.85;;;1.00;;
61962;SDS011;47927;42.646;23.096;2023-04-03T15:48:23;2.03;;;1.08;;
61962;SDS011;47927;42.646;23.096;2023-04-03T15:50:48;1.30;;;0.80;;
61962;SDS011;47927;42.646;23.096;2023-04-03T15:53:14;2.92;;;0.90;;
61962;SDS011;47927;42.646;23.096;2023-04-03T15:55:40;1.58;;;1.00;;
61962;SDS011;47927;42.646;23.096;2023-04-03T15:58:06;3.53;;;1.20;;
61962;SDS011;47927;42.646;23.096;2023-04-03T16:00:32;1.85;;;1.05;;
61962;SDS011;47927;42.646;23.096;2023-04-03T16:03:05;2.50;;;1.30;;
61962;SDS011;47927;42.646;23.096;2023-04-03T16:05:35;1.50;;;1.00;;
61962;SDS011;47927;42.646;23.096;2023-04-03T16:08:02;1.98;;;1.05;;
61962;SDS011;47927;42.646;23.096;2023-04-03T16:10:28;3.28;;;1.65;;
61962;SDS011;47927;42.646;23.096;2023-04-03T16:12:54;2.42;;;1.50;;
61962;SDS011;47927;42.646;23.096;2023-04-03T16:15:20;2.22;;;1.10;;
61962;SDS011;47927;42.646;23.096;2023-04-03T16:17:46;2.60;;;1.00;;
61962;SDS011;47927;42.646;23.096;2023-04-03T16:20:13;4.97;;;2.42;;
61962;SDS011;47927;42.646;23.096;2023-04-03T16:22:40;2.60;;;1.25;;
61962;SDS011;47927;42.646;23.096;2023-04-03T16:25:07;3.30;;;1.33;;
61962;SDS011;47927;42.646;23.096;2023-04-03T16:27:33;1.35;;;0.70;;
61962;SDS011;47927;42.646;23.096;2023-04-03T16:29:59;1.73;;;0.93;;
61962;SDS011;47927;42.646;23.096;2023-04-03T16:32:26;1.85;;;0.93;;
61962;SDS011;47927;42.646;23.096;2023-04-03T16:34:54;1.80;;;0.90;;
61962;SDS011;47927;42.646;23.096;2023-04-03T16:37:21;2.17;;;1.20;;
61962;SDS011;47927;42.646;23.096;2023-04-03T16:39:46;2.33;;;1.17;;
61962;SDS011;47927;42.646;23.096;2023-04-03T16:42:12;2.42;;;1.02;;
61962;SDS011;47927;42.646;23.096;2023-04-03T16:44:38;2.03;;;1.10;;